Portada
METAR-TAF:

METAR-TAF

Aeroports :

Mankato, Minnesota, Estats Units d'Amèrica

latitud: 44-13N, longitud: 093-55W, altitud: 311 m

Observació

L'informe es va fer fa 40 minuts, a les 15:56 UTC
Vent 11 kt del Sud amb ràfegues de 19 kt
Temperatura 13°C
Humitat 62%
Pressió 1025 hPa
Visibilitat: 16.1 km
Cel clar

METAR: KMKT 221556Z AUTO 19011G19KT 10SM CLR 13/06 A3028 RMK AO2 SLP258 T01280061

Hora: 11:36 (16:36 UTC)

Pronòstic

L'informe es va fer fa 5 hores i 13 minuts, a les 11:23 UTC
Pronòstic vàlid del 22 a les 12 UTC al 23 a les 12 UTC
Vent 7 kt del Sud
Visibilitat: 10 km
Cel clar
A partir de les 22 a les 1600 UTC
Vent 11 kt del Sud amb ràfegues de 19 kt
Visibilitat: 10 km
Cel clar
A partir de les 23 a les 0200 UTC
Vent 6 kt del Sud/Sud-Est
Visibilitat: 10 km
Cel clar

TAF: KMKT 221123Z 2212/2312 17007KT P6SM SKC FM221600 18011G19KT P6SM SKC FM230200 16006KT P6SM SKC

Observacions i pronòstics meteorològics de més de 4000 aeroports (METAR i TAF).

Les estacions disponibles són els punts grocs i vermells al mapa.

Posi el ratolí al punt desitjat per veure el nom de l'estació.

Feu clic per veure les observacions i els pronòstics meteorològics.

Per canviar el mapa: feu clic els botons verds amb una creu de color negre per apropar; al botó verd amb un guió per allunyar la imatge; o en les fletxes verdes per a mapes adjacents.


METAR-TAF: